createdAt,value
2023-03-22T00:04:29.170Z,11.31
2023-03-22T00:09:34.717Z,11.31
2023-03-22T00:14:41.460Z,11.33
2023-03-22T00:19:47.482Z,11.24
2023-03-22T00:24:52.890Z,11.26
2023-03-22T00:29:58.375Z,11.26
2023-03-22T00:35:05.391Z,11.24
2023-03-22T00:40:13.596Z,11.25
2023-03-22T00:45:19.372Z,11.29
2023-03-22T00:50:24.925Z,11.31
2023-03-22T00:55:30.707Z,11.30
2023-03-22T01:00:36.502Z,11.32
2023-03-22T01:05:42.091Z,11.30
2023-03-22T01:10:47.740Z,11.19
2023-03-22T01:15:53.541Z,11.12
2023-03-22T01:21:01.175Z,11.09
2023-03-22T01:26:08.508Z,11.13
2023-03-22T01:31:14.626Z,11.16
2023-03-22T01:36:21.423Z,11.17
2023-03-22T01:41:27.155Z,11.11
2023-03-22T01:46:33.876Z,11.16
2023-03-22T01:51:43.873Z,11.24
2023-03-22T01:57:07.927Z,11.28
2023-03-22T02:02:17.954Z,11.29
2023-03-22T02:07:28.613Z,11.33
2023-03-22T02:12:55.746Z,11.31
2023-03-22T02:18:26.623Z,11.34
2023-03-22T02:23:53.891Z,11.25
2023-03-22T02:29:07.520Z,11.23
2023-03-22T02:34:24.895Z,11.22
2023-03-22T02:39:36.393Z,11.32
2023-03-22T02:44:51.587Z,11.31
2023-03-22T02:50:02.734Z,11.29
2023-03-22T02:55:34.301Z,11.37
2023-03-22T03:00:44.245Z,11.34
2023-03-22T03:05:52.708Z,11.33
2023-03-22T03:10:58.736Z,11.20
2023-03-22T03:16:08.087Z,11.24
2023-03-22T03:21:48.699Z,11.26
2023-03-22T03:27:12.413Z,11.26
2023-03-22T03:32:26.957Z,11.05
2023-03-22T03:37:39.347Z,11.07
2023-03-22T03:42:47.800Z,11.09
2023-03-22T03:47:57.355Z,11.05
2023-03-22T03:53:03.549Z,11.04
2023-03-22T03:58:12.383Z,11.02
2023-03-22T04:03:19.666Z,11.00
2023-03-22T04:08:27.757Z,10.97
2023-03-22T04:13:33.534Z,10.98
2023-03-22T04:18:40.828Z,10.94
2023-03-22T04:23:46.981Z,11.01
2023-03-22T04:28:53.828Z,10.93
2023-03-22T04:34:00.490Z,11.02
2023-03-22T04:39:12.680Z,11.00
2023-03-22T04:44:19.137Z,10.97
2023-03-22T04:49:27.202Z,10.98
2023-03-22T04:54:32.757Z,10.95
2023-03-22T04:59:39.220Z,10.96
2023-03-22T05:04:45.442Z,10.97
2023-03-22T05:09:52.795Z,10.95
2023-03-22T05:14:58.579Z,10.97
2023-03-22T05:20:10.432Z,10.96
2023-03-22T05:25:17.856Z,10.91
2023-03-22T05:30:24.435Z,10.97
2023-03-22T05:35:33.783Z,11.01
2023-03-22T05:40:40.580Z,10.97
2023-03-22T05:45:47.626Z,11.00
2023-03-22T05:50:54.727Z,11.01
2023-03-22T05:56:00.908Z,11.00
2023-03-22T06:01:11.653Z,11.05
2023-03-22T06:06:28.358Z,10.97
2023-03-22T06:11:38.265Z,11.01
2023-03-22T06:16:44.959Z,11.06
2023-03-22T06:21:51.979Z,11.03
2023-03-22T06:26:59.136Z,11.76
2023-03-22T06:32:06.922Z,11.86
2023-03-22T06:37:12.774Z,11.59
2023-03-22T06:42:20.008Z,11.71
2023-03-22T06:47:27.553Z,11.60
2023-03-22T06:52:41.155Z,11.72
2023-03-22T06:57:46.984Z,11.57
2023-03-22T07:02:52.903Z,11.61
2023-03-22T07:08:00.301Z,11.74
2023-03-22T07:13:06.649Z,11.86
2023-03-22T07:18:13.654Z,11.91
2023-03-22T07:23:20.405Z,12.00
2023-03-22T07:28:28.221Z,11.99
2023-03-22T07:33:34.947Z,12.03
2023-03-22T07:38:40.699Z,12.08
2023-03-22T07:43:55.421Z,12.00
2023-03-22T07:48:56.332Z,11.98
2023-03-22T07:54:06.401Z,12.16
2023-03-22T07:59:11.889Z,12.18
2023-03-22T08:04:19.601Z,12.18
2023-03-22T08:09:33.408Z,12.05
2023-03-22T08:14:39.322Z,12.21
2023-03-22T08:19:47.148Z,12.36
2023-03-22T08:24:54.249Z,12.51
2023-03-22T08:30:02.494Z,12.50
2023-03-22T08:35:10.067Z,12.52
2023-03-22T08:40:16.112Z,12.63
2023-03-22T08:45:23.416Z,12.56
2023-03-22T08:50:30.781Z,12.83
2023-03-22T08:55:40.167Z,12.93
2023-03-22T09:00:53.633Z,12.94
2023-03-22T09:06:11.741Z,12.87
2023-03-22T09:11:20.342Z,13.03
2023-03-22T09:16:26.187Z,13.23
2023-03-22T09:21:32.114Z,13.32
2023-03-22T09:26:39.508Z,13.27
2023-03-22T09:31:46.856Z,13.58
2023-03-22T09:36:54.617Z,13.72
2023-03-22T09:42:06.349Z,13.59
2023-03-22T09:47:18.292Z,13.76
2023-03-22T09:52:23.869Z,13.99
2023-03-22T09:57:34.478Z,13.99
2023-03-22T10:02:45.904Z,14.26
2023-03-22T10:07:57.347Z,14.35
2023-03-22T10:13:15.476Z,14.44
2023-03-22T10:18:24.054Z,14.47
2023-03-22T10:23:35.491Z,14.56
2023-03-22T10:28:44.196Z,14.71
2023-03-22T10:33:58.563Z,14.66
2023-03-22T10:39:07.109Z,14.68
2023-03-22T10:44:15.745Z,14.82
2023-03-22T10:49:26.736Z,14.73
2023-03-22T10:54:32.793Z,14.78
2023-03-22T10:59:52.167Z,14.74
2023-03-22T11:05:00.692Z,15.06
2023-03-22T11:10:12.188Z,15.30
2023-03-22T11:15:35.769Z,15.52
2023-03-22T11:20:44.468Z,15.75
2023-03-22T11:25:52.827Z,15.76
2023-03-22T11:31:11.149Z,15.96
2023-03-22T11:36:19.201Z,15.98
2023-03-22T11:41:28.048Z,15.73
2023-03-22T11:46:36.232Z,15.94
2023-03-22T11:51:43.350Z,15.96
2023-03-22T11:56:50.650Z,15.83
2023-03-22T12:02:17.380Z,16.11
2023-03-22T12:07:24.789Z,16.07
2023-03-22T12:12:36.260Z,16.07
2023-03-22T12:18:10.936Z,16.06
2023-03-22T12:23:19.159Z,16.20
2023-03-22T12:28:27.697Z,16.53
2023-03-22T12:33:36.213Z,16.73
2023-03-22T12:38:44.670Z,16.37
2023-03-22T12:43:56.128Z,16.40
2023-03-22T12:49:40.657Z,16.10
2023-03-22T12:54:49.682Z,16.05
2023-03-22T12:59:58.558Z,15.97
2023-03-22T13:05:08.988Z,15.96
2023-03-22T13:10:37.089Z,16.02
2023-03-22T13:16:00.902Z,16.13
2023-03-22T13:21:21.301Z,16.27
2023-03-22T13:26:51.680Z,16.15
2023-03-22T13:32:00.399Z,16.32
2023-03-22T13:37:25.383Z,16.46
2023-03-22T13:42:39.976Z,16.59
2023-03-22T13:47:47.892Z,16.50
2023-03-22T13:53:05.869Z,16.48
2023-03-22T13:58:14.043Z,16.75
2023-03-22T14:03:25.709Z,16.69
2023-03-22T14:08:34.053Z,16.86
2023-03-22T14:13:45.381Z,16.74
2023-03-22T14:18:52.066Z,16.94
